Time;durP1;ratioP1;P1;durP2;ratioP2;P2;SDS_P1;SDS_P2;PMS_P1;PMS_P2;Temp;Humidity;BMP_temperature;BMP_pressure;BME280_temperature;BME280_humidity;BME280_pressure;Samples;Min_cycle;Max_cycle;Signal;HPM_P1;HPM_P2
2022/10/08 00:01:00;;;;;;;4.97;3.20;;;;;;;;;;5009788;28;20666;-75
2022/10/08 00:03:30;;;;;;;6.07;2.70;;;;;;;;;;5019535;28;20212;-75
2022/10/08 00:06:02;;;;;;;8.83;3.03;;;;;;;;;;4984564;28;20227;-75
2022/10/08 00:08:32;;;;;;;5.87;2.60;;;;;;;;;;5027332;28;20689;-76
2022/10/08 00:11:00;;;;;;;8.90;2.90;;;;;;;;;;5006396;28;20697;-75
2022/10/08 00:13:27;;;;;;;11.07;3.77;;;;;;;;;;5008860;28;20264;-76
2022/10/08 00:15:55;;;;;;;5.57;2.77;;;;;;;;;;5038453;28;20650;-75
2022/10/08 00:18:21;;;;;;;8.80;3.47;;;;;;;;;;5000157;28;20251;-75
2022/10/08 00:20:49;;;;;;;5.67;2.97;;;;;;;;;;4996694;28;20286;-75
2022/10/08 00:23:17;;;;;;;7.87;2.97;;;;;;;;;;5028503;28;20245;-75
2022/10/08 00:25:43;;;;;;;9.13;3.20;;;;;;;;;;5020802;28;20228;-75
2022/10/08 00:28:11;;;;;;;6.63;2.80;;;;;;;;;;5025322;28;20240;-76
2022/10/08 00:30:38;;;;;;;7.63;3.40;;;;;;;;;;5010765;28;20232;-76
2022/10/08 00:33:09;;;;;;;8.33;2.83;;;;;;;;;;5026504;28;20234;-76
2022/10/08 00:35:38;;;;;;;7.80;2.97;;;;;;;;;;5022362;28;20637;-76
2022/10/08 00:38:03;;;;;;;8.27;3.23;;;;;;;;;;5011909;28;20596;-76
2022/10/08 00:40:29;;;;;;;4.67;3.10;;;;;;;;;;5017208;28;20219;-76
2022/10/08 00:42:54;;;;;;;4.77;2.77;;;;;;;;;;5032145;28;20772;-76
2022/10/08 00:45:22;;;;;;;3.67;2.40;;;;;;;;;;5033782;28;20231;-75
2022/10/08 00:47:55;;;;;;;14.57;8.67;;;;;;;;;;5010101;28;20285;-75
2022/10/08 00:50:33;;;;;;;11.37;3.67;;;;;;;;;;5017608;28;20223;-75
2022/10/08 00:53:04;;;;;;;19.40;4.63;;;;;;;;;;5000280;28;20246;-75
2022/10/08 00:55:31;;;;;;;11.57;7.73;;;;;;;;;;5004077;28;20233;-76
2022/10/08 00:58:02;;;;;;;10.40;4.33;;;;;;;;;;5012213;28;20243;-75
2022/10/08 01:00:28;;;;;;;9.63;4.10;;;;;;;;;;5027110;28;20720;-76
2022/10/08 01:02:53;;;;;;;7.23;4.10;;;;;;;;;;5017453;28;20232;-75
2022/10/08 01:05:38;;;;;;;11.27;4.00;;;;;;;;;;5004714;28;20239;-75
2022/10/08 01:08:31;;;;;;;11.00;3.90;;;;;;;;;;5001549;28;20244;-75
2022/10/08 01:11:16;;;;;;;12.20;4.30;;;;;;;;;;5029861;28;20230;-75
2022/10/08 01:13:44;;;;;;;7.00;3.73;;;;;;;;;;5030604;28;20277;-75
2022/10/08 01:16:35;;;;;;;7.13;3.50;;;;;;;;;;5043316;28;20236;-75
2022/10/08 01:19:33;;;;;;;7.37;3.27;;;;;;;;;;5023622;28;20277;-75
2022/10/08 01:22:29;;;;;;;6.93;2.60;;;;;;;;;;5028457;28;20282;-75
2022/10/08 01:25:36;;;;;;;3.87;2.50;;;;;;;;;;5019750;28;20228;-75
2022/10/08 01:28:18;;;;;;;7.10;2.73;;;;;;;;;;4963506;28;20244;-75
2022/10/08 01:30:51;;;;;;;6.33;2.93;;;;;;;;;;5014873;28;20221;-75
2022/10/08 01:33:21;;;;;;;8.33;2.77;;;;;;;;;;5013362;28;20232;-75
2022/10/08 01:35:50;;;;;;;5.60;3.03;;;;;;;;;;5019675;28;20641;-75
2022/10/08 01:38:16;;;;;;;8.07;3.17;;;;;;;;;;5000849;28;20223;-75
2022/10/08 01:40:43;;;;;;;7.50;2.93;;;;;;;;;;5013706;28;20255;-76
2022/10/08 01:43:09;;;;;;;7.23;3.03;;;;;;;;;;4999651;28;20230;-75
2022/10/08 01:45:59;;;;;;;5.53;2.70;;;;;;;;;;5017177;28;20220;-75
2022/10/08 01:48:28;;;;;;;12.93;2.70;;;;;;;;;;5018106;28;20231;-75
2022/10/08 01:50:57;;;;;;;6.50;3.03;;;;;;;;;;5009076;28;20706;-75
2022/10/08 01:53:24;;;;;;;6.17;2.80;;;;;;;;;;5012600;28;21754;-74
2022/10/08 01:55:51;;;;;;;8.77;2.87;;;;;;;;;;5032496;28;20639;-75
2022/10/08 01:58:41;;;;;;;4.83;2.53;;;;;;;;;;5015902;28;20310;-74
2022/10/08 02:01:10;;;;;;;7.37;2.70;;;;;;;;;;5033407;28;20637;-75
2022/10/08 02:03:36;;;;;;;7.83;2.60;;;;;;;;;;5017502;28;20223;-74
2022/10/08 02:06:02;;;;;;;7.47;2.70;;;;;;;;;;5006495;28;20748;-75
2022/10/08 02:08:27;;;;;;;7.57;2.63;;;;;;;;;;5020618;28;20296;-75
2022/10/08 02:10:53;;;;;;;6.23;2.40;;;;;;;;;;4988675;28;20240;-75
2022/10/08 02:13:19;;;;;;;6.87;2.80;;;;;;;;;;4998647;28;20220;-75
2022/10/08 02:16:01;;;;;;;6.47;2.73;;;;;;;;;;5004281;28;20296;-75
2022/10/08 02:18:39;;;;;;;8.93;2.67;;;;;;;;;;5011223;28;20282;-75
2022/10/08 02:21:15;;;;;;;4.47;2.47;;;;;;;;;;5005674;28;20303;-75
2022/10/08 02:23:44;;;;;;;6.13;2.80;;;;;;;;;;5022438;28;20224;-75
2022/10/08 02:26:12;;;;;;;9.93;2.83;;;;;;;;;;5013804;28;20709;-75
2022/10/08 02:28:48;;;;;;;7.37;2.27;;;;;;;;;;5018420;28;20294;-75
2022/10/08 02:31:37;;;;;;;7.83;2.53;;;;;;;;;;5028304;28;20320;-75
2022/10/08 02:34:24;;;;;;;4.80;2.60;;;;;;;;;;5016131;28;20604;-75
2022/10/08 02:36:56;;;;;;;6.50;2.77;;;;;;;;;;5016635;28;20240;-75
2022/10/08 02:39:22;;;;;;;4.77;2.40;;;;;;;;;;5043475;28;20221;-75
2022/10/08 02:41:49;;;;;;;5.27;2.77;;;;;;;;;;4999063;28;20225;-75
2022/10/08 02:44:23;;;;;;;4.77;2.50;;;;;;;;;;4994946;28;20220;-75
2022/10/08 02:46:51;;;;;;;5.30;2.30;;;;;;;;;;5011727;28;20236;-75
2022/10/08 02:49:23;;;;;;;12.17;3.27;;;;;;;;;;5001768;28;20231;-75
2022/10/08 02:51:52;;;;;;;7.00;2.40;;;;;;;;;;4988724;28;20236;-75
2022/10/08 02:54:18;;;;;;;6.10;2.50;;;;;;;;;;5026381;28;20285;-76
2022/10/08 02:56:54;;;;;;;6.07;2.70;;;;;;;;;;5008207;28;20223;-75
2022/10/08 02:59:24;;;;;;;8.43;2.57;;;;;;;;;;5030866;28;20593;-76
2022/10/08 03:02:01;;;;;;;6.57;2.40;;;;;;;;;;5034658;28;20291;-75
2022/10/08 03:04:37;;;;;;;7.00;2.17;;;;;;;;;;5033545;28;20223;-75
2022/10/08 03:07:03;;;;;;;5.37;2.50;;;;;;;;;;5026668;28;20246;-76
2022/10/08 03:09:35;;;;;;;6.60;2.80;;;;;;;;;;5010265;28;20212;-75
2022/10/08 03:12:00;;;;;;;4.67;2.30;;;;;;;;;;5026345;28;20798;-75
2022/10/08 03:14:28;;;;;;;7.37;2.90;;;;;;;;;;5016689;28;20216;-75
2022/10/08 03:16:56;;;;;;;7.97;2.63;;;;;;;;;;5027441;28;20229;-75
2022/10/08 03:19:21;;;;;;;8.07;2.53;;;;;;;;;;5010462;28;21104;-75
2022/10/08 03:21:48;;;;;;;6.13;2.70;;;;;;;;;;4987964;28;20613;-75
2022/10/08 03:24:14;;;;;;;7.23;5.33;;;;;;;;;;5002137;28;20224;-75
2022/10/08 03:26:41;;;;;;;8.43;3.93;;;;;;;;;;5032054;28;20233;-74
2022/10/08 03:29:07;;;;;;;10.53;5.80;;;;;;;;;;5013133;28;20235;-76
2022/10/08 03:31:33;;;;;;;6.67;3.07;;;;;;;;;;4998416;28;20220;-75
2022/10/08 03:33:59;;;;;;;7.77;3.10;;;;;;;;;;5036579;28;20230;-75
2022/10/08 03:36:24;;;;;;;6.23;3.00;;;;;;;;;;5028650;28;20216;-75
2022/10/08 03:38:50;;;;;;;7.67;3.20;;;;;;;;;;5011815;28;20820;-75
2022/10/08 03:41:16;;;;;;;11.47;3.07;;;;;;;;;;5010513;28;20232;-75
2022/10/08 03:43:41;;;;;;;8.23;2.97;;;;;;;;;;5007699;28;20282;-75
2022/10/08 03:46:07;;;;;;;5.43;2.63;;;;;;;;;;5016319;28;20754;-75
2022/10/08 03:48:33;;;;;;;7.57;3.10;;;;;;;;;;5023712;28;20225;-75
2022/10/08 03:51:00;;;;;;;9.53;2.60;;;;;;;;;;5001815;28;20735;-75
2022/10/08 03:53:26;;;;;;;4.47;2.33;;;;;;;;;;5025386;28;20220;-75
2022/10/08 03:55:51;;;;;;;6.17;2.50;;;;;;;;;;5037405;28;20237;-75
2022/10/08 03:58:19;;;;;;;7.93;2.83;;;;;;;;;;4998355;28;20228;-75
2022/10/08 04:01:10;;;;;;;7.83;2.90;;;;;;;;;;5029467;28;20349;-75
2022/10/08 04:03:36;;;;;;;5.83;2.67;;;;;;;;;;5015628;28;20698;-75
2022/10/08 04:06:01;;;;;;;4.77;2.50;;;;;;;;;;5013012;28;20307;-76
2022/10/08 04:08:27;;;;;;;8.93;2.90;;;;;;;;;;5004867;28;20215;-75
2022/10/08 04:10:52;;;;;;;5.40;2.90;;;;;;;;;;5000050;28;20231;-75
2022/10/08 04:13:18;;;;;;;9.90;2.77;;;;;;;;;;5026602;28;20228;-76
2022/10/08 04:15:49;;;;;;;6.67;2.97;;;;;;;;;;5017023;28;20913;-73
2022/10/08 04:18:17;;;;;;;8.07;2.90;;;;;;;;;;5015974;28;20229;-75
2022/10/08 04:20:45;;;;;;;9.20;2.80;;;;;;;;;;5023953;28;20228;-75
2022/10/08 04:23:10;;;;;;;6.40;2.83;;;;;;;;;;5020451;28;20224;-75
2022/10/08 04:25:38;;;;;;;5.30;2.90;;;;;;;;;;5027884;28;20316;-75
2022/10/08 04:28:04;;;;;;;7.77;2.97;;;;;;;;;;4997098;28;20650;-74
2022/10/08 04:30:30;;;;;;;9.17;2.70;;;;;;;;;;5006081;28;20228;-75
2022/10/08 04:32:58;;;;;;;8.03;2.70;;;;;;;;;;5002510;28;20750;-73
2022/10/08 04:35:25;;;;;;;5.83;2.80;;;;;;;;;;5012302;28;20219;-76
2022/10/08 04:37:51;;;;;;;7.60;2.73;;;;;;;;;;5001975;28;20224;-76
2022/10/08 04:40:18;;;;;;;6.67;2.80;;;;;;;;;;5023975;28;20746;-73
2022/10/08 04:42:48;;;;;;;14.87;3.27;;;;;;;;;;5027658;28;20251;-73
2022/10/08 04:45:16;;;;;;;6.83;3.10;;;;;;;;;;5025434;28;20258;-75
2022/10/08 04:47:42;;;;;;;6.33;3.70;;;;;;;;;;5030028;28;20247;-73
2022/10/08 04:50:10;;;;;;;7.13;3.50;;;;;;;;;;5019758;28;20449;-75
2022/10/08 04:52:35;;;;;;;10.60;3.47;;;;;;;;;;5017907;28;20315;-73
2022/10/08 04:55:01;;;;;;;8.07;3.27;;;;;;;;;;5030930;28;20712;-74
2022/10/08 04:57:28;;;;;;;10.23;3.33;;;;;;;;;;5048721;28;20223;-75
2022/10/08 04:59:54;;;;;;;8.33;3.47;;;;;;;;;;5000922;28;20698;-74
2022/10/08 05:02:24;;;;;;;8.93;3.53;;;;;;;;;;5009189;28;20347;-75
2022/10/08 05:04:49;;;;;;;8.00;3.03;;;;;;;;;;5013468;28;20224;-74
2022/10/08 05:07:15;;;;;;;9.70;3.40;;;;;;;;;;5016023;28;20706;-75
2022/10/08 05:09:45;;;;;;;10.00;3.13;;;;;;;;;;5014852;28;20227;-74
2022/10/08 05:12:10;;;;;;;7.20;3.40;;;;;;;;;;5010208;28;20231;-75
2022/10/08 05:14:36;;;;;;;11.07;3.23;;;;;;;;;;5029846;28;20223;-75
2022/10/08 05:17:01;;;;;;;10.37;3.57;;;;;;;;;;5007556;28;20274;-74
2022/10/08 05:19:29;;;;;;;7.83;3.53;;;;;;;;;;5034256;28;20213;-75
2022/10/08 05:22:02;;;;;;;9.40;3.30;;;;;;;;;;5035069;28;20223;-75
2022/10/08 05:24:27;;;;;;;9.77;3.60;;;;;;;;;;5031767;28;20220;-74
2022/10/08 05:26:53;;;;;;;6.53;3.57;;;;;;;;;;5001680;28;20238;-74
2022/10/08 05:29:18;;;;;;;6.47;3.17;;;;;;;;;;4993888;28;20247;-74
2022/10/08 05:31:46;;;;;;;9.33;3.27;;;;;;;;;;5033245;28;20227;-75
2022/10/08 05:34:14;;;;;;;7.03;3.30;;;;;;;;;;5036338;28;20225;-74
2022/10/08 05:36:39;;;;;;;11.87;3.63;;;;;;;;;;5026138;28;20614;-74
2022/10/08 05:39:05;;;;;;;6.13;3.27;;;;;;;;;;5038047;28;20227;-74
2022/10/08 05:41:32;;;;;;;10.87;3.90;;;;;;;;;;5033850;28;20230;-74
2022/10/08 05:44:00;;;;;;;8.60;3.50;;;;;;;;;;5024740;28;20223;-74
2022/10/08 05:46:29;;;;;;;8.97;3.17;;;;;;;;;;4977905;28;20266;-74
2022/10/08 05:48:56;;;;;;;8.50;3.57;;;;;;;;;;5019711;28;20236;-76
2022/10/08 05:51:22;;;;;;;8.63;3.27;;;;;;;;;;5018766;28;20231;-76
2022/10/08 05:53:48;;;;;;;11.40;3.70;;;;;;;;;;5009621;28;20650;-76
2022/10/08 05:56:16;;;;;;;7.57;3.87;;;;;;;;;;4995405;28;20324;-76
2022/10/08 05:58:41;;;;;;;9.03;3.57;;;;;;;;;;4997682;28;20233;-76
2022/10/08 06:01:17;;;;;;;7.10;3.60;;;;;;;;;;5010060;28;20240;-76
2022/10/08 06:03:42;;;;;;;7.90;3.30;;;;;;;;;;5013454;28;20273;-74
2022/10/08 06:06:09;;;;;;;10.37;4.07;;;;;;;;;;5022215;28;20231;-76
2022/10/08 06:08:35;;;;;;;7.50;3.23;;;;;;;;;;5004186;28;20760;-76
2022/10/08 06:11:01;;;;;;;5.37;3.10;;;;;;;;;;5026219;28;20229;-76
2022/10/08 06:13:26;;;;;;;8.03;3.50;;;;;;;;;;4984495;28;20217;-74
2022/10/08 06:16:04;;;;;;;5.63;3.10;;;;;;;;;;5012877;28;20231;-74
2022/10/08 06:18:32;;;;;;;7.37;3.53;;;;;;;;;;4999474;28;20255;-75
2022/10/08 06:21:10;;;;;;;7.33;3.60;;;;;;;;;;5016408;28;20215;-75
2022/10/08 06:23:37;;;;;;;9.23;3.27;;;;;;;;;;5013648;28;20228;-75
2022/10/08 06:26:04;;;;;;;7.33;3.50;;;;;;;;;;5011363;28;20315;-75
2022/10/08 06:28:30;;;;;;;11.50;3.57;;;;;;;;;;4982667;28;20239;-75
2022/10/08 06:30:58;;;;;;;9.30;3.70;;;;;;;;;;5020613;28;20262;-75
2022/10/08 06:33:24;;;;;;;8.53;4.60;;;;;;;;;;5002593;28;20270;-75
2022/10/08 06:35:49;;;;;;;7.23;3.83;;;;;;;;;;5002380;28;20220;-75
2022/10/08 06:38:15;;;;;;;13.47;6.97;;;;;;;;;;4999862;28;20715;-75
2022/10/08 06:40:43;;;;;;;11.77;5.53;;;;;;;;;;5018675;28;20259;-75
2022/10/08 06:43:12;;;;;;;8.53;4.77;;;;;;;;;;5016824;28;20225;-75
2022/10/08 06:45:38;;;;;;;9.80;6.07;;;;;;;;;;5017706;28;20310;-75
2022/10/08 06:48:03;;;;;;;12.70;4.83;;;;;;;;;;5019917;28;20228;-75
2022/10/08 06:50:29;;;;;;;10.63;5.80;;;;;;;;;;4975465;28;20216;-75
2022/10/08 06:52:55;;;;;;;8.03;4.77;;;;;;;;;;4997836;28;20931;-75
2022/10/08 06:55:20;;;;;;;7.57;4.40;;;;;;;;;;5011753;28;20756;-75
2022/10/08 06:57:46;;;;;;;11.60;3.80;;;;;;;;;;4998592;28;20209;-73
2022/10/08 07:00:12;;;;;;;10.40;3.97;;;;;;;;;;5019669;28;20242;-74
2022/10/08 07:02:37;;;;;;;8.23;3.97;;;;;;;;;;5006732;28;20282;-73
2022/10/08 07:05:09;;;;;;;5.07;3.43;;;;;;;;;;5020400;28;20220;-75
2022/10/08 07:07:37;;;;;;;10.47;3.53;;;;;;;;;;5001909;28;20309;-74
2022/10/08 07:10:03;;;;;;;5.57;3.63;;;;;;;;;;5022480;28;20243;-74
2022/10/08 07:12:29;;;;;;;5.90;3.40;;;;;;;;;;4999585;28;20684;-74
2022/10/08 07:14:56;;;;;;;8.60;3.60;;;;;;;;;;5033529;28;20247;-74
2022/10/08 07:17:24;;;;;;;12.17;3.50;;;;;;;;;;5001983;28;20232;-75
2022/10/08 07:19:55;;;;;;;5.93;3.40;;;;;;;;;;5009999;28;20231;-74
2022/10/08 07:22:23;;;;;;;6.63;3.63;;;;;;;;;;5006391;28;20340;-75
2022/10/08 07:24:49;;;;;;;6.90;3.60;;;;;;;;;;5029230;28;20236;-75
2022/10/08 07:27:15;;;;;;;8.60;3.80;;;;;;;;;;5012233;28;20233;-75
2022/10/08 07:29:40;;;;;;;7.93;3.90;;;;;;;;;;4997203;28;20674;-74
2022/10/08 07:32:06;;;;;;;8.97;4.93;;;;;;;;;;5003419;28;20223;-75
2022/10/08 07:34:31;;;;;;;8.50;4.70;;;;;;;;;;5006026;28;20315;-76
2022/10/08 07:36:57;;;;;;;8.73;3.87;;;;;;;;;;5019913;28;20231;-74
2022/10/08 07:39:22;;;;;;;6.93;4.03;;;;;;;;;;5007971;28;20238;-76
2022/10/08 07:41:48;;;;;;;6.37;4.10;;;;;;;;;;5020007;28;20288;-75
2022/10/08 07:44:14;;;;;;;6.10;4.13;;;;;;;;;;4984212;28;20354;-75
2022/10/08 07:46:47;;;;;;;6.83;4.17;;;;;;;;;;5010427;28;20232;-75
2022/10/08 07:49:13;;;;;;;11.30;4.93;;;;;;;;;;5010263;28;20255;-76
2022/10/08 07:51:40;;;;;;;6.10;4.27;;;;;;;;;;4987027;28;20263;-76
2022/10/08 07:54:07;;;;;;;10.13;4.87;;;;;;;;;;5028724;28;20212;-77
2022/10/08 07:56:33;;;;;;;8.37;4.33;;;;;;;;;;5014668;28;20230;-75
2022/10/08 07:58:59;;;;;;;8.30;4.53;;;;;;;;;;5003503;28;20211;-76
2022/10/08 08:01:28;;;;;;;9.40;4.50;;;;;;;;;;5030150;28;20219;-74
2022/10/08 08:04:01;;;;;;;8.00;4.53;;;;;;;;;;5027047;28;20226;-74
2022/10/08 08:06:29;;;;;;;6.33;4.33;;;;;;;;;;5001632;28;20224;-75
2022/10/08 08:08:55;;;;;;;8.50;4.50;;;;;;;;;;4990779;28;20224;-76
2022/10/08 08:11:22;;;;;;;6.40;4.17;;;;;;;;;;4972351;28;20212;-74
2022/10/08 08:13:51;;;;;;;8.60;4.80;;;;;;;;;;5016185;28;20239;-80
2022/10/08 08:16:20;;;;;;;11.40;5.83;;;;;;;;;;4993886;28;20260;-76
2022/10/08 08:18:49;;;;;;;7.83;5.03;;;;;;;;;;5020532;28;20223;-73
2022/10/08 08:21:28;;;;;;;10.67;5.27;;;;;;;;;;5009579;28;20220;-75
2022/10/08 08:23:56;;;;;;;7.67;5.10;;;;;;;;;;5015140;28;20859;-74
2022/10/08 08:26:31;;;;;;;6.80;4.83;;;;;;;;;;5016781;28;20334;-76
2022/10/08 08:29:14;;;;;;;5.77;4.37;;;;;;;;;;5017828;28;20228;-75
2022/10/08 08:31:42;;;;;;;6.83;4.50;;;;;;;;;;5005102;28;20223;-75
2022/10/08 08:34:09;;;;;;;6.67;4.47;;;;;;;;;;5018280;28;20585;-75
2022/10/08 08:36:39;;;;;;;6.13;4.43;;;;;;;;;;5013880;28;20236;-74
2022/10/08 08:39:07;;;;;;;5.67;4.20;;;;;;;;;;4984192;28;20228;-74
2022/10/08 08:41:45;;;;;;;8.27;4.47;;;;;;;;;;5004793;28;20682;-76
2022/10/08 08:44:15;;;;;;;8.50;4.33;;;;;;;;;;5026898;28;20228;-74
2022/10/08 08:46:42;;;;;;;9.97;4.30;;;;;;;;;;5016740;28;20283;-77
2022/10/08 08:49:29;;;;;;;9.07;4.53;;;;;;;;;;5005035;28;20310;-75
2022/10/08 08:51:55;;;;;;;7.87;4.50;;;;;;;;;;5022266;28;20258;-75
2022/10/08 08:54:22;;;;;;;6.30;4.00;;;;;;;;;;4997654;28;20591;-75
2022/10/08 08:56:47;;;;;;;6.83;4.23;;;;;;;;;;5020051;28;20715;-76
2022/10/08 08:59:30;;;;;;;7.93;4.40;;;;;;;;;;5023180;28;20310;-75
2022/10/08 09:01:58;;;;;;;8.43;4.17;;;;;;;;;;5031768;28;20633;-75
2022/10/08 09:04:46;;;;;;;7.13;3.87;;;;;;;;;;5010535;28;20212;-74
2022/10/08 09:07:14;;;;;;;4.77;3.80;;;;;;;;;;5001637;28;20234;-76
2022/10/08 09:09:41;;;;;;;9.00;3.83;;;;;;;;;;5008565;28;20244;-74
2022/10/08 09:12:25;;;;;;;9.13;4.00;;;;;;;;;;5031745;28;20650;-75
2022/10/08 09:14:53;;;;;;;5.17;3.37;;;;;;;;;;5054577;28;20307;-74
2022/10/08 09:17:33;;;;;;;6.43;4.07;;;;;;;;;;4990440;28;20217;-74
2022/10/08 09:20:00;;;;;;;5.80;3.47;;;;;;;;;;5020282;28;20216;-75
2022/10/08 09:22:34;;;;;;;9.00;3.57;;;;;;;;;;5005563;28;20223;-75
2022/10/08 09:25:05;;;;;;;5.27;2.80;;;;;;;;;;5016309;28;20228;-75
2022/10/08 09:27:53;;;;;;;9.75;3.13;;;;;;;;;;5023284;28;20219;-74
2022/10/08 09:30:32;;;;;;;6.88;2.85;;;;;;;;;;5041421;28;20228;-75
2022/10/08 09:33:20;;;;;;;5.50;2.90;;;;;;;;;;5013109;28;20229;-73
2022/10/08 09:35:49;;;;;;;7.85;2.88;;;;;;;;;;5029139;28;20270;-74
2022/10/08 09:38:23;;;;;;;4.97;2.53;;;;;;;;;;4998152;28;20216;-73
2022/10/08 09:40:58;;;;;;;5.75;2.65;;;;;;;;;;5039914;28;20219;-74
2022/10/08 09:43:24;;;;;;;7.30;2.87;;;;;;;;;;5016576;28;20235;-73
2022/10/08 09:45:54;;;;;;;5.38;2.40;;;;;;;;;;5006282;28;20310;-73
2022/10/08 09:48:25;;;;;;;7.03;2.47;;;;;;;;;;5018207;28;20228;-74
2022/10/08 09:50:51;;;;;;;6.10;2.55;;;;;;;;;;5000935;28;20243;-75
2022/10/08 09:53:16;;;;;;;5.17;2.40;;;;;;;;;;5038477;28;20267;-73
2022/10/08 09:55:50;;;;;;;6.83;2.90;;;;;;;;;;5004605;28;20548;-75
2022/10/08 09:58:18;;;;;;;8.40;2.72;;;;;;;;;;4995811;28;20304;-75
2022/10/08 10:00:43;;;;;;;7.55;2.38;;;;;;;;;;5012253;28;20244;-74
2022/10/08 10:03:16;;;;;;;9.75;2.28;;;;;;;;;;5005422;28;20686;-74
2022/10/08 10:05:41;;;;;;;7.80;2.50;;;;;;;;;;4988672;28;20243;-74
2022/10/08 10:08:35;;;;;;;7.53;2.22;;;;;;;;;;5033497;28;20227;-72
2022/10/08 10:11:01;;;;;;;6.90;2.42;;;;;;;;;;5031701;28;20220;-74
2022/10/08 10:13:36;;;;;;;4.95;2.30;;;;;;;;;;5003947;28;20218;-73
2022/10/08 10:16:08;;;;;;;3.97;2.08;;;;;;;;;;5023380;28;20235;-74
2022/10/08 10:18:53;;;;;;;5.38;1.70;;;;;;;;;;5018803;28;20229;-74
2022/10/08 10:21:33;;;;;;;4.35;1.85;;;;;;;;;;5007502;28;20222;-74
2022/10/08 10:24:26;;;;;;;7.70;2.30;;;;;;;;;;5021798;28;20261;-73
2022/10/08 10:26:55;;;;;;;7.78;1.90;;;;;;;;;;5019739;28;20311;-73
2022/10/08 10:29:24;;;;;;;3.22;1.90;;;;;;;;;;5015381;28;20223;-73
2022/10/08 10:31:53;;;;;;;3.47;1.55;;;;;;;;;;4997364;28;20256;-74
2022/10/08 10:34:24;;;;;;;4.00;1.88;;;;;;;;;;5012462;28;20225;-73
2022/10/08 10:36:55;;;;;;;6.00;2.55;;;;;;;;;;5002413;28;20250;-75
2022/10/08 10:39:35;;;;;;;8.68;2.40;;;;;;;;;;5044547;28;20224;-75
2022/10/08 10:42:19;;;;;;;4.97;2.00;;;;;;;;;;5016240;28;20247;-74
2022/10/08 10:44:47;;;;;;;6.63;2.15;;;;;;;;;;5016272;28;20227;-76
2022/10/08 10:47:13;;;;;;;3.95;1.83;;;;;;;;;;5015949;28;20247;-73
2022/10/08 10:49:40;;;;;;;3.38;1.65;;;;;;;;;;4994934;28;20242;-74
2022/10/08 10:52:08;;;;;;;4.07;1.67;;;;;;;;;;4998696;28;20213;-74
2022/10/08 10:55:09;;;;;;;4.93;2.03;;;;;;;;;;5049347;28;20637;-73
2022/10/08 10:57:57;;;;;;;3.88;1.63;;;;;;;;;;5016115;28;20709;-73
2022/10/08 11:00:27;;;;;;;5.80;2.00;;;;;;;;;;5036541;28;20230;-73
2022/10/08 11:03:40;;;;;;;4.47;1.70;;;;;;;;;;5031814;28;20248;-72
2022/10/08 11:06:24;;;;;;;3.80;1.03;;;;;;;;;;4999552;28;20233;-73
2022/10/08 11:09:17;;;;;;;3.57;1.17;;;;;;;;;;5032293;28;20821;-73
2022/10/08 11:11:51;;;;;;;8.70;1.30;;;;;;;;;;5035321;28;20223;-73
2022/10/08 11:14:46;;;;;;;1.17;0.87;;;;;;;;;;5005235;28;20301;-73
2022/10/08 11:17:15;;;;;;;2.63;1.10;;;;;;;;;;5045908;28;20224;-75
2022/10/08 11:20:03;;;;;;;2.20;0.80;;;;;;;;;;5022335;28;20232;-75
2022/10/08 11:22:40;;;;;;;2.20;1.07;;;;;;;;;;4996342;28;20324;-75
2022/10/08 11:25:32;;;;;;;2.37;0.80;;;;;;;;;;4989336;28;20220;-75
2022/10/08 11:28:24;;;;;;;2.03;0.90;;;;;;;;;;5012225;28;20227;-74
2022/10/08 11:31:18;;;;;;;1.30;1.00;;;;;;;;;;5020434;28;20224;-75
2022/10/08 11:33:48;;;;;;;2.37;1.10;;;;;;;;;;5033687;28;20307;-78
2022/10/08 11:36:22;;;;;;;1.83;0.93;;;;;;;;;;4997655;28;20245;-76
2022/10/08 11:38:48;;;;;;;1.60;1.00;;;;;;;;;;5043115;28;20265;-76
2022/10/08 11:41:41;;;;;;;1.30;0.73;;;;;;;;;;5049952;28;20591;-76
2022/10/08 11:44:11;;;;;;;2.00;0.80;;;;;;;;;;4995724;28;20258;-77
2022/10/08 11:46:37;;;;;;;1.60;0.90;;;;;;;;;;5007841;28;20234;-77
2022/10/08 11:49:08;;;;;;;2.90;0.90;;;;;;;;;;5010522;28;20224;-75
2022/10/08 11:51:36;;;;;;;1.33;1.00;;;;;;;;;;5029755;28;20623;-73
2022/10/08 11:54:06;;;;;;;1.67;0.93;;;;;;;;;;4996667;28;20248;-74
2022/10/08 11:56:34;;;;;;;1.60;1.10;;;;;;;;;;5027110;28;20229;-76
2022/10/08 11:59:04;;;;;;;2.70;0.90;;;;;;;;;;5008273;28;20219;-74
2022/10/08 12:01:29;;;;;;;1.23;0.90;;;;;;;;;;5013751;28;20224;-74
2022/10/08 12:04:06;;;;;;;3.70;1.30;;;;;;;;;;5023149;28;20223;-73
2022/10/08 12:06:35;;;;;;;2.08;0.80;;;;;;;;;;4990968;28;20230;-75
2022/10/08 12:09:04;;;;;;;2.35;1.00;;;;;;;;;;5013421;28;20231;-73
2022/10/08 12:11:38;;;;;;;5.65;1.00;;;;;;;;;;5021737;28;20235;-73
2022/10/08 12:14:10;;;;;;;2.95;0.80;;;;;;;;;;5030474;28;20224;-75
2022/10/08 12:16:47;;;;;;;3.08;1.10;;;;;;;;;;5022991;28;20724;-74
2022/10/08 12:19:31;;;;;;;1.65;1.10;;;;;;;;;;5033475;28;20227;-73
2022/10/08 12:22:00;;;;;;;2.63;0.77;;;;;;;;;;5038400;28;20236;-74
2022/10/08 12:24:37;;;;;;;2.55;1.17;;;;;;;;;;5012815;28;20219;-74
2022/10/08 12:27:15;;;;;;;1.43;0.80;;;;;;;;;;5023008;28;20235;-74
2022/10/08 12:29:57;;;;;;;1.47;1.00;;;;;;;;;;5028408;28;20228;-74
2022/10/08 12:32:25;;;;;;;2.20;1.27;;;;;;;;;;5029947;28;20301;-75
2022/10/08 12:34:55;;;;;;;1.80;0.93;;;;;;;;;;5001849;28;20216;-74
2022/10/08 12:37:37;;;;;;;1.50;1.00;;;;;;;;;;5011840;28;20224;-75
2022/10/08 12:40:11;;;;;;;8.37;1.33;;;;;;;;;;5046434;28;20234;-75
2022/10/08 12:42:37;;;;;;;3.97;1.17;;;;;;;;;;5008379;28;20286;-73
2022/10/08 12:45:07;;;;;;;1.90;1.03;;;;;;;;;;4995079;28;20221;-74
2022/10/08 12:47:47;;;;;;;2.27;1.30;;;;;;;;;;5004272;28;20216;-73
2022/10/08 12:50:31;;;;;;;3.90;1.47;;;;;;;;;;5021764;28;20222;-73
2022/10/08 12:53:04;;;;;;;4.20;1.23;;;;;;;;;;5029845;28;20753;-75
2022/10/08 12:55:32;;;;;;;2.40;1.53;;;;;;;;;;4989533;28;20240;-74
2022/10/08 12:58:02;;;;;;;2.17;1.30;;;;;;;;;;5020106;28;20227;-73
2022/10/08 13:00:30;;;;;;;2.45;1.33;;;;;;;;;;5031299;28;20231;-74
2022/10/08 13:03:15;;;;;;;3.80;1.50;;;;;;;;;;5023804;28;20231;-74
2022/10/08 13:05:44;;;;;;;3.70;1.15;;;;;;;;;;5018364;28;20227;-74
2022/10/08 13:08:28;;;;;;;1.53;1.07;;;;;;;;;;5014820;28;20228;-72
2022/10/08 13:10:56;;;;;;;3.38;1.30;;;;;;;;;;5042144;28;20267;-74
2022/10/08 13:13:43;;;;;;;3.33;1.27;;;;;;;;;;4993778;28;20228;-74
2022/10/08 13:16:15;;;;;;;2.85;1.25;;;;;;;;;;5021905;28;20238;-73
2022/10/08 13:18:43;;;;;;;2.00;1.30;;;;;;;;;;5003409;28;20223;-73
2022/10/08 13:21:30;;;;;;;1.67;1.10;;;;;;;;;;5029694;28;20259;-73
2022/10/08 13:24:21;;;;;;;1.67;1.17;;;;;;;;;;5030515;28;20254;-72
2022/10/08 13:26:48;;;;;;;2.22;1.00;;;;;;;;;;5016483;28;20312;-73
2022/10/08 13:29:20;;;;;;;1.83;0.80;;;;;;;;;;5003546;28;20662;-73
2022/10/08 13:32:05;;;;;;;3.43;1.10;;;;;;;;;;5029653;28;20234;-73
2022/10/08 13:34:39;;;;;;;2.05;1.15;;;;;;;;;;5038882;28;20223;-75
2022/10/08 13:37:29;;;;;;;3.65;1.90;;;;;;;;;;5011442;28;20362;-75
2022/10/08 13:39:57;;;;;;;3.50;1.27;;;;;;;;;;5031087;28;20223;-74
2022/10/08 13:42:33;;;;;;;1.83;1.13;;;;;;;;;;5025338;28;20232;-74
2022/10/08 13:45:03;;;;;;;2.38;1.38;;;;;;;;;;5012443;28;20849;-73
2022/10/08 13:47:30;;;;;;;2.58;1.30;;;;;;;;;;5007092;28;20348;-74
2022/10/08 13:50:00;;;;;;;2.15;1.05;;;;;;;;;;5016917;28;20235;-75
2022/10/08 13:52:27;;;;;;;2.60;1.13;;;;;;;;;;5003561;28;20223;-75
2022/10/08 13:54:55;;;;;;;1.60;0.88;;;;;;;;;;5002562;28;20686;-75
2022/10/08 13:57:20;;;;;;;2.07;0.70;;;;;;;;;;5018010;28;20246;-75
2022/10/08 13:59:46;;;;;;;1.17;0.60;;;;;;;;;;5015784;28;20694;-74
2022/10/08 14:02:16;;;;;;;1.83;0.60;;;;;;;;;;5033776;28;20216;-75
2022/10/08 14:04:41;;;;;;;1.93;0.63;;;;;;;;;;5012693;28;20221;-74
2022/10/08 14:07:30;;;;;;;1.17;0.67;;;;;;;;;;5006733;28;20713;-75
2022/10/08 14:09:56;;;;;;;2.07;0.80;;;;;;;;;;4996551;28;20711;-74
2022/10/08 14:12:25;;;;;;;2.30;0.93;;;;;;;;;;5016510;28;20225;-74
2022/10/08 14:14:53;;;;;;;3.43;0.90;;;;;;;;;;5015505;28;20235;-74
2022/10/08 14:17:18;;;;;;;1.63;0.60;;;;;;;;;;5002088;28;21134;-73
2022/10/08 14:19:47;;;;;;;2.53;0.80;;;;;;;;;;5036106;28;20246;-75
2022/10/08 14:22:12;;;;;;;1.17;0.80;;;;;;;;;;5001750;28;20689;-73
2022/10/08 14:24:40;;;;;;;3.87;0.80;;;;;;;;;;5016853;28;20235;-74
2022/10/08 14:27:05;;;;;;;3.03;0.90;;;;;;;;;;5010846;28;20223;-75
2022/10/08 14:29:34;;;;;;;1.50;0.75;;;;;;;;;;5014880;28;20648;-74
2022/10/08 14:32:00;;;;;;;3.87;0.77;;;;;;;;;;5005075;28;20393;-74
2022/10/08 14:34:25;;;;;;;2.53;0.80;;;;;;;;;;5030300;28;20209;-75
2022/10/08 14:36:56;;;;;;;0.87;0.70;;;;;;;;;;5008813;28;20598;-75
2022/10/08 14:39:23;;;;;;;2.20;0.85;;;;;;;;;;5001934;28;20333;-75
2022/10/08 14:41:48;;;;;;;1.83;0.87;;;;;;;;;;5014539;28;20316;-75
2022/10/08 14:44:15;;;;;;;3.07;1.03;;;;;;;;;;5036316;28;20768;-75
2022/10/08 14:46:43;;;;;;;1.87;0.97;;;;;;;;;;5004148;28;20300;-75
2022/10/08 14:49:09;;;;;;;2.20;1.10;;;;;;;;;;4982709;28;20642;-77
2022/10/08 14:51:37;;;;;;;2.17;1.10;;;;;;;;;;5038092;28;20718;-75
2022/10/08 14:54:09;;;;;;;2.22;1.00;;;;;;;;;;5037269;28;20238;-74
2022/10/08 14:56:42;;;;;;;1.67;1.00;;;;;;;;;;5016500;28;20676;-74
2022/10/08 14:59:10;;;;;;;2.35;0.82;;;;;;;;;;5032264;28;20220;-75
2022/10/08 15:01:38;;;;;;;4.65;1.10;;;;;;;;;;5016635;28;20340;-74
2022/10/08 15:04:04;;;;;;;3.88;1.20;;;;;;;;;;5030970;28;20744;-75